sensor_id;sensor_type;location;lat;lon;timestamp;P1;durP1;ratioP1;P2;durP2;ratioP2
5428;SDS011;2737;52.386;9.980;2023-04-24T00:01:27;1.10;;;1.00;;
5428;SDS011;2737;52.386;9.980;2023-04-24T00:03:54;1.23;;;0.90;;
5428;SDS011;2737;52.386;9.980;2023-04-24T00:06:24;2.00;;;0.93;;
5428;SDS011;2737;52.386;9.980;2023-04-24T00:08:58;2.67;;;1.30;;
5428;SDS011;2737;52.386;9.980;2023-04-24T00:11:25;2.00;;;0.93;;
5428;SDS011;2737;52.386;9.980;2023-04-24T00:13:52;0.83;;;0.83;;
5428;SDS011;2737;52.386;9.980;2023-04-24T00:16:19;1.13;;;0.77;;
5428;SDS011;2737;52.386;9.980;2023-04-24T00:18:48;0.90;;;0.80;;
5428;SDS011;2737;52.386;9.980;2023-04-24T00:21:17;1.57;;;1.10;;
5428;SDS011;2737;52.386;9.980;2023-04-24T00:23:44;1.10;;;0.83;;
5428;SDS011;2737;52.386;9.980;2023-04-24T00:26:11;1.27;;;1.00;;
5428;SDS011;2737;52.386;9.980;2023-04-24T00:28:38;0.73;;;0.73;;
5428;SDS011;2737;52.386;9.980;2023-04-24T00:31:05;0.80;;;0.80;;
5428;SDS011;2737;52.386;9.980;2023-04-24T00:33:32;0.70;;;0.70;;
5428;SDS011;2737;52.386;9.980;2023-04-24T00:36:01;2.20;;;0.90;;
5428;SDS011;2737;52.386;9.980;2023-04-24T00:38:28;1.53;;;1.03;;
5428;SDS011;2737;52.386;9.980;2023-04-24T00:40:55;1.47;;;1.00;;
5428;SDS011;2737;52.386;9.980;2023-04-24T00:43:22;1.20;;;0.90;;
5428;SDS011;2737;52.386;9.980;2023-04-24T00:45:49;1.20;;;0.90;;
5428;SDS011;2737;52.386;9.980;2023-04-24T00:48:16;0.93;;;0.90;;
5428;SDS011;2737;52.386;9.980;2023-04-24T00:50:44;1.10;;;1.00;;
5428;SDS011;2737;52.386;9.980;2023-04-24T00:53:13;2.63;;;1.00;;
5428;SDS011;2737;52.386;9.980;2023-04-24T00:55:40;0.97;;;0.90;;
5428;SDS011;2737;52.386;9.980;2023-04-24T00:58:07;1.00;;;1.00;;
5428;SDS011;2737;52.386;9.980;2023-04-24T01:00:34;1.67;;;1.20;;
5428;SDS011;2737;52.386;9.980;2023-04-24T01:03:01;1.23;;;1.10;;
5428;SDS011;2737;52.386;9.980;2023-04-24T01:05:32;1.40;;;1.30;;
5428;SDS011;2737;52.386;9.980;2023-04-24T01:07:59;1.60;;;1.13;;
5428;SDS011;2737;52.386;9.980;2023-04-24T01:10:29;1.40;;;1.30;;
5428;SDS011;2737;52.386;9.980;2023-04-24T01:12:57;1.60;;;1.10;;
5428;SDS011;2737;52.386;9.980;2023-04-24T01:15:25;1.47;;;1.20;;
5428;SDS011;2737;52.386;9.980;2023-04-24T01:17:52;1.60;;;1.27;;
5428;SDS011;2737;52.386;9.980;2023-04-24T01:20:19;1.37;;;1.27;;
5428;SDS011;2737;52.386;9.980;2023-04-24T01:22:48;2.53;;;1.40;;
5428;SDS011;2737;52.386;9.980;2023-04-24T01:25:15;1.77;;;1.00;;
5428;SDS011;2737;52.386;9.980;2023-04-24T01:27:42;1.90;;;0.97;;
5428;SDS011;2737;52.386;9.980;2023-04-24T01:30:10;1.07;;;1.00;;
5428;SDS011;2737;52.386;9.980;2023-04-24T01:32:38;2.77;;;1.20;;
5428;SDS011;2737;52.386;9.980;2023-04-24T01:35:06;1.63;;;1.00;;
5428;SDS011;2737;52.386;9.980;2023-04-24T01:37:34;1.17;;;1.00;;
5428;SDS011;2737;52.386;9.980;2023-04-24T01:40:03;1.10;;;1.00;;
5428;SDS011;2737;52.386;9.980;2023-04-24T01:42:32;1.27;;;1.10;;
5428;SDS011;2737;52.386;9.980;2023-04-24T01:45:00;2.30;;;1.00;;
5428;SDS011;2737;52.386;9.980;2023-04-24T01:47:30;1.20;;;1.00;;
5428;SDS011;2737;52.386;9.980;2023-04-24T01:49:58;1.43;;;1.20;;
5428;SDS011;2737;52.386;9.980;2023-04-24T01:52:25;2.53;;;1.00;;
5428;SDS011;2737;52.386;9.980;2023-04-24T01:54:54;1.77;;;0.90;;
5428;SDS011;2737;52.386;9.980;2023-04-24T01:57:22;1.53;;;1.30;;
5428;SDS011;2737;52.386;9.980;2023-04-24T01:59:50;1.53;;;0.90;;
5428;SDS011;2737;52.386;9.980;2023-04-24T02:02:17;1.70;;;1.10;;
5428;SDS011;2737;52.386;9.980;2023-04-24T02:04:46;1.17;;;1.00;;
5428;SDS011;2737;52.386;9.980;2023-04-24T02:07:13;1.77;;;1.20;;
5428;SDS011;2737;52.386;9.980;2023-04-24T02:09:40;1.10;;;1.10;;
5428;SDS011;2737;52.386;9.980;2023-04-24T02:12:07;1.30;;;1.20;;
5428;SDS011;2737;52.386;9.980;2023-04-24T02:14:35;2.43;;;0.90;;
5428;SDS011;2737;52.386;9.980;2023-04-24T02:17:02;2.73;;;0.90;;
5428;SDS011;2737;52.386;9.980;2023-04-24T02:19:30;1.73;;;0.80;;
5428;SDS011;2737;52.386;9.980;2023-04-24T02:21:57;1.90;;;0.90;;
5428;SDS011;2737;52.386;9.980;2023-04-24T02:24:24;0.90;;;0.90;;
5428;SDS011;2737;52.386;9.980;2023-04-24T02:26:51;0.87;;;0.87;;
5428;SDS011;2737;52.386;9.980;2023-04-24T02:29:18;1.10;;;1.00;;
5428;SDS011;2737;52.386;9.980;2023-04-24T02:31:46;0.77;;;0.77;;
5428;SDS011;2737;52.386;9.980;2023-04-24T02:34:13;2.00;;;0.73;;
5428;SDS011;2737;52.386;9.980;2023-04-24T02:36:41;1.50;;;0.80;;
5428;SDS011;2737;52.386;9.980;2023-04-24T02:39:08;1.10;;;0.90;;
5428;SDS011;2737;52.386;9.980;2023-04-24T02:41:35;6.13;;;1.10;;
5428;SDS011;2737;52.386;9.980;2023-04-24T02:44:02;1.63;;;1.30;;
5428;SDS011;2737;52.386;9.980;2023-04-24T02:46:29;3.00;;;1.03;;
5428;SDS011;2737;52.386;9.980;2023-04-24T02:48:57;1.20;;;1.10;;
5428;SDS011;2737;52.386;9.980;2023-04-24T02:51:24;1.10;;;1.00;;
5428;SDS011;2737;52.386;9.980;2023-04-24T02:53:52;1.83;;;1.00;;
5428;SDS011;2737;52.386;9.980;2023-04-24T02:56:19;1.57;;;1.30;;
5428;SDS011;2737;52.386;9.980;2023-04-24T02:58:46;1.00;;;0.90;;
5428;SDS011;2737;52.386;9.980;2023-04-24T03:01:13;2.87;;;1.10;;
5428;SDS011;2737;52.386;9.980;2023-04-24T03:03:40;2.03;;;1.10;;
5428;SDS011;2737;52.386;9.980;2023-04-24T03:06:08;4.63;;;1.10;;
5428;SDS011;2737;52.386;9.980;2023-04-24T03:08:35;1.80;;;1.07;;
5428;SDS011;2737;52.386;9.980;2023-04-24T03:11:03;2.20;;;0.90;;
5428;SDS011;2737;52.386;9.980;2023-04-24T03:13:30;2.10;;;1.03;;
5428;SDS011;2737;52.386;9.980;2023-04-24T03:15:57;1.57;;;1.20;;
5428;SDS011;2737;52.386;9.980;2023-04-24T03:18:24;1.30;;;1.20;;
5428;SDS011;2737;52.386;9.980;2023-04-24T03:20:51;1.40;;;1.00;;
5428;SDS011;2737;52.386;9.980;2023-04-24T03:23:20;1.10;;;1.00;;
5428;SDS011;2737;52.386;9.980;2023-04-24T03:25:47;1.20;;;0.97;;
5428;SDS011;2737;52.386;9.980;2023-04-24T03:28:14;1.90;;;1.17;;
5428;SDS011;2737;52.386;9.980;2023-04-24T03:30:41;1.40;;;1.00;;
5428;SDS011;2737;52.386;9.980;2023-04-24T03:33:08;1.20;;;1.10;;
5428;SDS011;2737;52.386;9.980;2023-04-24T03:35:35;1.97;;;1.13;;
5428;SDS011;2737;52.386;9.980;2023-04-24T03:38:02;3.17;;;1.13;;
5428;SDS011;2737;52.386;9.980;2023-04-24T03:40:31;3.40;;;1.03;;
5428;SDS011;2737;52.386;9.980;2023-04-24T03:42:59;1.60;;;1.00;;
5428;SDS011;2737;52.386;9.980;2023-04-24T03:45:26;1.10;;;0.93;;
5428;SDS011;2737;52.386;9.980;2023-04-24T03:47:53;1.00;;;0.80;;
5428;SDS011;2737;52.386;9.980;2023-04-24T03:50:20;1.37;;;0.90;;
5428;SDS011;2737;52.386;9.980;2023-04-24T03:52:47;2.23;;;1.63;;
5428;SDS011;2737;52.386;9.980;2023-04-24T03:55:14;2.40;;;1.53;;
5428;SDS011;2737;52.386;9.980;2023-04-24T03:57:42;1.10;;;1.00;;
5428;SDS011;2737;52.386;9.980;2023-04-24T04:00:10;0.80;;;0.80;;
5428;SDS011;2737;52.386;9.980;2023-04-24T04:02:39;2.03;;;1.00;;
5428;SDS011;2737;52.386;9.980;2023-04-24T04:05:06;1.67;;;1.17;;
5428;SDS011;2737;52.386;9.980;2023-04-24T04:07:33;3.43;;;0.83;;
5428;SDS011;2737;52.386;9.980;2023-04-24T04:10:00;1.50;;;0.90;;
5428;SDS011;2737;52.386;9.980;2023-04-24T04:12:28;1.00;;;0.90;;
5428;SDS011;2737;52.386;9.980;2023-04-24T04:14:56;2.87;;;1.20;;
5428;SDS011;2737;52.386;9.980;2023-04-24T04:17:23;1.13;;;1.03;;
5428;SDS011;2737;52.386;9.980;2023-04-24T04:19:50;1.00;;;0.90;;
5428;SDS011;2737;52.386;9.980;2023-04-24T04:22:17;1.30;;;0.87;;
5428;SDS011;2737;52.386;9.980;2023-04-24T04:24:44;1.70;;;0.90;;
5428;SDS011;2737;52.386;9.980;2023-04-24T04:27:12;2.30;;;1.27;;
5428;SDS011;2737;52.386;9.980;2023-04-24T04:29:39;1.20;;;0.80;;
5428;SDS011;2737;52.386;9.980;2023-04-24T04:32:10;7.63;;;1.10;;
5428;SDS011;2737;52.386;9.980;2023-04-24T04:34:37;1.23;;;1.13;;
5428;SDS011;2737;52.386;9.980;2023-04-24T04:37:04;1.90;;;1.70;;
5428;SDS011;2737;52.386;9.980;2023-04-24T04:39:31;5.00;;;1.50;;
5428;SDS011;2737;52.386;9.980;2023-04-24T04:41:58;1.13;;;1.03;;
5428;SDS011;2737;52.386;9.980;2023-04-24T04:44:25;1.20;;;1.10;;
5428;SDS011;2737;52.386;9.980;2023-04-24T04:46:53;1.97;;;1.13;;
5428;SDS011;2737;52.386;9.980;2023-04-24T04:49:22;1.57;;;1.40;;
5428;SDS011;2737;52.386;9.980;2023-04-24T04:51:49;1.10;;;1.00;;
5428;SDS011;2737;52.386;9.980;2023-04-24T04:54:17;1.30;;;1.20;;
5428;SDS011;2737;52.386;9.980;2023-04-24T04:56:44;4.40;;;1.47;;
5428;SDS011;2737;52.386;9.980;2023-04-24T04:59:11;2.03;;;1.20;;
5428;SDS011;2737;52.386;9.980;2023-04-24T05:01:38;2.80;;;1.00;;
5428;SDS011;2737;52.386;9.980;2023-04-24T05:04:05;1.60;;;1.30;;
5428;SDS011;2737;52.386;9.980;2023-04-24T05:06:33;1.27;;;1.17;;
5428;SDS011;2737;52.386;9.980;2023-04-24T05:09:00;1.27;;;1.13;;
5428;SDS011;2737;52.386;9.980;2023-04-24T05:11:28;1.63;;;1.03;;
5428;SDS011;2737;52.386;9.980;2023-04-24T05:13:55;1.73;;;1.20;;
5428;SDS011;2737;52.386;9.980;2023-04-24T05:16:22;2.37;;;1.00;;
5428;SDS011;2737;52.386;9.980;2023-04-24T05:18:49;4.60;;;0.97;;
5428;SDS011;2737;52.386;9.980;2023-04-24T05:21:16;2.10;;;0.80;;
5428;SDS011;2737;52.386;9.980;2023-04-24T05:23:45;1.00;;;0.90;;
5428;SDS011;2737;52.386;9.980;2023-04-24T05:26:12;2.23;;;0.90;;
5428;SDS011;2737;52.386;9.980;2023-04-24T05:28:40;1.63;;;1.43;;
5428;SDS011;2737;52.386;9.980;2023-04-24T05:31:07;2.20;;;1.00;;
5428;SDS011;2737;52.386;9.980;2023-04-24T05:33:34;1.37;;;1.00;;
5428;SDS011;2737;52.386;9.980;2023-04-24T05:36:01;2.10;;;1.03;;
5428;SDS011;2737;52.386;9.980;2023-04-24T05:38:30;6.33;;;1.00;;
5428;SDS011;2737;52.386;9.980;2023-04-24T05:40:58;1.00;;;0.83;;
5428;SDS011;2737;52.386;9.980;2023-04-24T05:43:25;0.80;;;0.80;;
5428;SDS011;2737;52.386;9.980;2023-04-24T05:45:52;1.80;;;1.10;;
5428;SDS011;2737;52.386;9.980;2023-04-24T05:48:20;1.10;;;0.80;;
5428;SDS011;2737;52.386;9.980;2023-04-24T05:50:48;0.97;;;0.90;;
5428;SDS011;2737;52.386;9.980;2023-04-24T05:53:15;1.60;;;1.00;;
5428;SDS011;2737;52.386;9.980;2023-04-24T05:55:42;1.73;;;1.20;;
5428;SDS011;2737;52.386;9.980;2023-04-24T05:58:11;1.70;;;0.90;;
5428;SDS011;2737;52.386;9.980;2023-04-24T06:00:39;0.80;;;0.80;;
5428;SDS011;2737;52.386;9.980;2023-04-24T06:03:07;1.60;;;1.00;;
5428;SDS011;2737;52.386;9.980;2023-04-24T06:05:35;1.50;;;1.10;;
5428;SDS011;2737;52.386;9.980;2023-04-24T06:08:02;2.40;;;1.10;;
5428;SDS011;2737;52.386;9.980;2023-04-24T06:10:29;2.70;;;0.97;;
5428;SDS011;2737;52.386;9.980;2023-04-24T06:12:56;3.10;;;1.40;;
5428;SDS011;2737;52.386;9.980;2023-04-24T06:15:27;1.30;;;1.20;;
5428;SDS011;2737;52.386;9.980;2023-04-24T06:17:55;2.10;;;1.00;;
5428;SDS011;2737;52.386;9.980;2023-04-24T06:20:22;2.40;;;1.10;;
5428;SDS011;2737;52.386;9.980;2023-04-24T06:22:50;2.37;;;1.07;;
5428;SDS011;2737;52.386;9.980;2023-04-24T06:25:17;1.30;;;1.20;;
5428;SDS011;2737;52.386;9.980;2023-04-24T06:27:44;3.00;;;1.30;;
5428;SDS011;2737;52.386;9.980;2023-04-24T06:30:11;2.90;;;1.17;;
5428;SDS011;2737;52.386;9.980;2023-04-24T06:32:40;1.67;;;1.47;;
5428;SDS011;2737;52.386;9.980;2023-04-24T06:35:07;1.80;;;1.20;;
5428;SDS011;2737;52.386;9.980;2023-04-24T06:37:36;3.23;;;1.43;;
5428;SDS011;2737;52.386;9.980;2023-04-24T06:40:04;2.90;;;1.30;;
5428;SDS011;2737;52.386;9.980;2023-04-24T06:42:31;1.90;;;1.23;;
5428;SDS011;2737;52.386;9.980;2023-04-24T06:45:00;5.10;;;1.30;;
5428;SDS011;2737;52.386;9.980;2023-04-24T06:47:27;1.50;;;1.00;;
5428;SDS011;2737;52.386;9.980;2023-04-24T06:49:55;3.27;;;1.40;;
5428;SDS011;2737;52.386;9.980;2023-04-24T06:52:22;1.97;;;1.40;;
5428;SDS011;2737;52.386;9.980;2023-04-24T06:54:49;2.27;;;1.20;;
5428;SDS011;2737;52.386;9.980;2023-04-24T06:57:17;1.70;;;1.33;;
5428;SDS011;2737;52.386;9.980;2023-04-24T06:59:44;4.00;;;1.80;;
5428;SDS011;2737;52.386;9.980;2023-04-24T07:02:11;4.23;;;1.60;;
5428;SDS011;2737;52.386;9.980;2023-04-24T07:04:38;2.93;;;1.83;;
5428;SDS011;2737;52.386;9.980;2023-04-24T07:07:06;3.33;;;1.83;;
5428;SDS011;2737;52.386;9.980;2023-04-24T07:09:34;4.10;;;1.80;;
5428;SDS011;2737;52.386;9.980;2023-04-24T07:12:04;3.47;;;1.30;;
5428;SDS011;2737;52.386;9.980;2023-04-24T07:14:32;2.57;;;1.47;;
5428;SDS011;2737;52.386;9.980;2023-04-24T07:16:59;2.30;;;1.70;;
5428;SDS011;2737;52.386;9.980;2023-04-24T07:19:27;2.77;;;1.53;;
5428;SDS011;2737;52.386;9.980;2023-04-24T07:21:53;2.60;;;1.70;;
5428;SDS011;2737;52.386;9.980;2023-04-24T07:24:22;1.73;;;1.50;;
5428;SDS011;2737;52.386;9.980;2023-04-24T07:26:50;2.40;;;1.77;;
5428;SDS011;2737;52.386;9.980;2023-04-24T07:29:17;4.20;;;2.30;;
5428;SDS011;2737;52.386;9.980;2023-04-24T07:31:45;5.13;;;2.37;;
5428;SDS011;2737;52.386;9.980;2023-04-24T07:34:12;3.50;;;2.97;;
5428;SDS011;2737;52.386;9.980;2023-04-24T07:36:39;3.57;;;2.73;;
5428;SDS011;2737;52.386;9.980;2023-04-24T07:39:07;5.10;;;2.77;;
5428;SDS011;2737;52.386;9.980;2023-04-24T07:41:35;4.10;;;3.03;;
5428;SDS011;2737;52.386;9.980;2023-04-24T07:44:02;4.37;;;3.03;;
5428;SDS011;2737;52.386;9.980;2023-04-24T07:46:30;4.23;;;3.50;;
5428;SDS011;2737;52.386;9.980;2023-04-24T07:48:57;9.20;;;3.90;;
5428;SDS011;2737;52.386;9.980;2023-04-24T07:51:26;8.43;;;3.57;;
5428;SDS011;2737;52.386;9.980;2023-04-24T07:53:53;5.13;;;3.53;;
5428;SDS011;2737;52.386;9.980;2023-04-24T07:56:21;5.83;;;3.40;;
5428;SDS011;2737;52.386;9.980;2023-04-24T07:58:49;6.13;;;3.57;;
5428;SDS011;2737;52.386;9.980;2023-04-24T08:01:16;4.63;;;3.17;;
5428;SDS011;2737;52.386;9.980;2023-04-24T08:03:43;5.07;;;3.50;;
5428;SDS011;2737;52.386;9.980;2023-04-24T08:06:10;6.50;;;3.70;;
5428;SDS011;2737;52.386;9.980;2023-04-24T08:08:37;5.40;;;3.63;;
5428;SDS011;2737;52.386;9.980;2023-04-24T08:11:04;5.80;;;3.33;;
5428;SDS011;2737;52.386;9.980;2023-04-24T08:13:31;3.93;;;3.00;;
5428;SDS011;2737;52.386;9.980;2023-04-24T08:16:00;6.03;;;3.80;;
5428;SDS011;2737;52.386;9.980;2023-04-24T08:18:27;7.33;;;4.53;;
5428;SDS011;2737;52.386;9.980;2023-04-24T08:20:54;8.70;;;4.00;;
5428;SDS011;2737;52.386;9.980;2023-04-24T08:23:21;5.23;;;3.83;;
5428;SDS011;2737;52.386;9.980;2023-04-24T08:25:48;5.60;;;4.40;;
5428;SDS011;2737;52.386;9.980;2023-04-24T08:28:15;4.97;;;4.17;;
5428;SDS011;2737;52.386;9.980;2023-04-24T08:30:45;7.13;;;4.77;;
5428;SDS011;2737;52.386;9.980;2023-04-24T08:33:14;5.37;;;4.23;;
5428;SDS011;2737;52.386;9.980;2023-04-24T08:35:41;7.77;;;4.03;;
5428;SDS011;2737;52.386;9.980;2023-04-24T08:38:08;6.93;;;3.33;;
5428;SDS011;2737;52.386;9.980;2023-04-24T08:40:35;5.40;;;3.90;;
5428;SDS011;2737;52.386;9.980;2023-04-24T08:43:04;6.97;;;4.20;;
5428;SDS011;2737;52.386;9.980;2023-04-24T08:45:32;5.13;;;3.70;;
5428;SDS011;2737;52.386;9.980;2023-04-24T08:47:59;5.50;;;3.70;;
5428;SDS011;2737;52.386;9.980;2023-04-24T08:50:28;4.53;;;3.80;;
5428;SDS011;2737;52.386;9.980;2023-04-24T08:52:55;6.83;;;4.27;;
5428;SDS011;2737;52.386;9.980;2023-04-24T08:55:23;5.20;;;4.50;;
5428;SDS011;2737;52.386;9.980;2023-04-24T08:57:52;5.47;;;3.83;;
5428;SDS011;2737;52.386;9.980;2023-04-24T09:00:20;7.50;;;4.27;;
5428;SDS011;2737;52.386;9.980;2023-04-24T09:02:48;6.43;;;3.70;;
5428;SDS011;2737;52.386;9.980;2023-04-24T09:05:16;7.73;;;4.20;;
5428;SDS011;2737;52.386;9.980;2023-04-24T09:07:46;8.00;;;4.20;;
5428;SDS011;2737;52.386;9.980;2023-04-24T09:10:16;6.80;;;4.20;;
5428;SDS011;2737;52.386;9.980;2023-04-24T09:12:43;5.53;;;4.10;;
5428;SDS011;2737;52.386;9.980;2023-04-24T09:15:11;4.60;;;3.73;;
5428;SDS011;2737;52.386;9.980;2023-04-24T09:17:38;6.63;;;4.00;;
5428;SDS011;2737;52.386;9.980;2023-04-24T09:20:06;6.53;;;3.87;;
5428;SDS011;2737;52.386;9.980;2023-04-24T09:22:34;5.73;;;4.10;;
5428;SDS011;2737;52.386;9.980;2023-04-24T09:25:03;10.10;;;4.27;;
5428;SDS011;2737;52.386;9.980;2023-04-24T09:27:32;5.83;;;3.50;;
5428;SDS011;2737;52.386;9.980;2023-04-24T09:29:59;5.47;;;3.30;;
5428;SDS011;2737;52.386;9.980;2023-04-24T09:32:27;5.63;;;3.93;;
5428;SDS011;2737;52.386;9.980;2023-04-24T09:35:08;4.93;;;3.77;;
5428;SDS011;2737;52.386;9.980;2023-04-24T09:37:36;6.40;;;4.07;;
5428;SDS011;2737;52.386;9.980;2023-04-24T09:40:09;9.80;;;3.70;;
5428;SDS011;2737;52.386;9.980;2023-04-24T09:42:43;4.57;;;3.43;;
5428;SDS011;2737;52.386;9.980;2023-04-24T09:45:11;5.03;;;3.73;;
5428;SDS011;2737;52.386;9.980;2023-04-24T09:47:38;7.23;;;3.47;;
5428;SDS011;2737;52.386;9.980;2023-04-24T09:50:09;3.40;;;2.37;;
5428;SDS011;2737;52.386;9.980;2023-04-24T09:52:41;2.07;;;1.87;;
5428;SDS011;2737;52.386;9.980;2023-04-24T09:55:18;2.60;;;2.23;;
5428;SDS011;2737;52.386;9.980;2023-04-24T09:57:49;4.80;;;2.40;;
5428;SDS011;2737;52.386;9.980;2023-04-24T10:00:23;2.50;;;2.00;;
5428;SDS011;2737;52.386;9.980;2023-04-24T10:02:55;2.80;;;2.00;;
5428;SDS011;2737;52.386;9.980;2023-04-24T10:05:23;2.80;;;2.20;;
5428;SDS011;2737;52.386;9.980;2023-04-24T10:07:55;3.40;;;2.50;;
5428;SDS011;2737;52.386;9.980;2023-04-24T10:10:24;3.40;;;2.43;;
5428;SDS011;2737;52.386;9.980;2023-04-24T10:12:52;2.20;;;2.00;;
5428;SDS011;2737;52.386;9.980;2023-04-24T10:15:20;3.23;;;2.37;;
5428;SDS011;2737;52.386;9.980;2023-04-24T10:17:48;5.73;;;2.83;;
5428;SDS011;2737;52.386;9.980;2023-04-24T10:20:18;3.33;;;2.37;;
5428;SDS011;2737;52.386;9.980;2023-04-24T10:22:47;4.13;;;2.40;;
5428;SDS011;2737;52.386;9.980;2023-04-24T10:25:16;4.53;;;2.13;;
5428;SDS011;2737;52.386;9.980;2023-04-24T10:27:47;2.27;;;2.07;;
5428;SDS011;2737;52.386;9.980;2023-04-24T10:30:16;2.90;;;2.47;;
5428;SDS011;2737;52.386;9.980;2023-04-24T10:32:43;2.17;;;1.83;;
5428;SDS011;2737;52.386;9.980;2023-04-24T10:35:11;3.43;;;2.07;;
5428;SDS011;2737;52.386;9.980;2023-04-24T10:37:40;3.53;;;2.00;;
5428;SDS011;2737;52.386;9.980;2023-04-24T10:40:10;3.27;;;1.70;;
5428;SDS011;2737;52.386;9.980;2023-04-24T10:42:42;3.57;;;1.83;;
5428;SDS011;2737;52.386;9.980;2023-04-24T10:45:17;3.00;;;1.87;;
5428;SDS011;2737;52.386;9.980;2023-04-24T10:50:42;2.00;;;1.80;;
5428;SDS011;2737;52.386;9.980;2023-04-24T10:53:12;4.63;;;1.77;;
5428;SDS011;2737;52.386;9.980;2023-04-24T10:55:43;2.53;;;2.00;;
5428;SDS011;2737;52.386;9.980;2023-04-24T10:58:12;2.37;;;1.87;;
5428;SDS011;2737;52.386;9.980;2023-04-24T11:00:43;5.07;;;1.90;;
5428;SDS011;2737;52.386;9.980;2023-04-24T11:03:23;1.97;;;1.77;;
5428;SDS011;2737;52.386;9.980;2023-04-24T11:05:52;3.10;;;1.57;;
5428;SDS011;2737;52.386;9.980;2023-04-24T11:08:24;1.40;;;1.30;;
5428;SDS011;2737;52.386;9.980;2023-04-24T11:10:57;4.20;;;1.60;;
5428;SDS011;2737;52.386;9.980;2023-04-24T11:13:26;1.90;;;1.63;;
5428;SDS011;2737;52.386;9.980;2023-04-24T11:16:14;3.17;;;1.80;;
5428;SDS011;2737;52.386;9.980;2023-04-24T11:18:49;1.93;;;1.70;;
5428;SDS011;2737;52.386;9.980;2023-04-24T11:21:19;1.83;;;1.40;;
5428;SDS011;2737;52.386;9.980;2023-04-24T11:23:48;1.77;;;1.53;;
5428;SDS011;2737;52.386;9.980;2023-04-24T11:26:17;5.33;;;2.00;;
5428;SDS011;2737;52.386;9.980;2023-04-24T11:28:48;3.13;;;1.60;;
5428;SDS011;2737;52.386;9.980;2023-04-24T11:31:36;1.90;;;1.10;;
5428;SDS011;2737;52.386;9.980;2023-04-24T11:34:07;1.30;;;1.20;;
5428;SDS011;2737;52.386;9.980;2023-04-24T11:36:35;1.20;;;1.10;;
5428;SDS011;2737;52.386;9.980;2023-04-24T11:39:03;1.23;;;1.13;;
5428;SDS011;2737;52.386;9.980;2023-04-24T11:41:30;1.93;;;1.30;;
5428;SDS011;2737;52.386;9.980;2023-04-24T11:43:58;5.83;;;1.40;;
5428;SDS011;2737;52.386;9.980;2023-04-24T11:46:28;1.23;;;1.13;;
5428;SDS011;2737;52.386;9.980;2023-04-24T11:48:57;1.47;;;1.30;;
5428;SDS011;2737;52.386;9.980;2023-04-24T11:51:25;1.63;;;1.50;;
5428;SDS011;2737;52.386;9.980;2023-04-24T11:53:53;1.40;;;1.30;;
5428;SDS011;2737;52.386;9.980;2023-04-24T11:56:21;1.67;;;1.43;;
5428;SDS011;2737;52.386;9.980;2023-04-24T11:58:48;1.57;;;1.30;;
5428;SDS011;2737;52.386;9.980;2023-04-24T12:01:19;1.73;;;1.23;;
5428;SDS011;2737;52.386;9.980;2023-04-24T12:03:47;1.40;;;1.10;;
5428;SDS011;2737;52.386;9.980;2023-04-24T12:06:17;1.40;;;1.30;;
5428;SDS011;2737;52.386;9.980;2023-04-24T12:08:48;2.30;;;1.20;;
5428;SDS011;2737;52.386;9.980;2023-04-24T12:11:15;4.37;;;0.97;;
5428;SDS011;2737;52.386;9.980;2023-04-24T12:13:46;0.90;;;0.90;;
5428;SDS011;2737;52.386;9.980;2023-04-24T12:16:13;1.23;;;1.13;;
5428;SDS011;2737;52.386;9.980;2023-04-24T12:18:43;0.80;;;0.80;;
5428;SDS011;2737;52.386;9.980;2023-04-24T12:21:14;1.13;;;0.90;;
5428;SDS011;2737;52.386;9.980;2023-04-24T12:23:43;0.80;;;0.70;;
5428;SDS011;2737;52.386;9.980;2023-04-24T12:26:11;4.23;;;0.80;;
5428;SDS011;2737;52.386;9.980;2023-04-24T12:28:38;1.33;;;1.07;;
5428;SDS011;2737;52.386;9.980;2023-04-24T12:31:06;1.07;;;0.97;;
5428;SDS011;2737;52.386;9.980;2023-04-24T12:33:34;1.43;;;1.00;;
5428;SDS011;2737;52.386;9.980;2023-04-24T12:36:02;0.83;;;0.83;;
5428;SDS011;2737;52.386;9.980;2023-04-24T12:38:31;1.30;;;0.70;;
5428;SDS011;2737;52.386;9.980;2023-04-24T12:41:05;1.10;;;0.70;;
5428;SDS011;2737;52.386;9.980;2023-04-24T12:43:33;3.73;;;0.83;;
5428;SDS011;2737;52.386;9.980;2023-04-24T12:46:00;1.30;;;0.90;;
5428;SDS011;2737;52.386;9.980;2023-04-24T12:48:28;0.90;;;0.80;;
5428;SDS011;2737;52.386;9.980;2023-04-24T12:50:56;2.77;;;0.97;;
5428;SDS011;2737;52.386;9.980;2023-04-24T12:53:26;1.40;;;1.07;;
5428;SDS011;2737;52.386;9.980;2023-04-24T12:55:56;3.80;;;1.00;;
5428;SDS011;2737;52.386;9.980;2023-04-24T12:58:23;1.30;;;1.20;;
5428;SDS011;2737;52.386;9.980;2023-04-24T13:00:50;1.20;;;1.10;;
5428;SDS011;2737;52.386;9.980;2023-04-24T13:03:18;1.00;;;0.90;;
5428;SDS011;2737;52.386;9.980;2023-04-24T13:05:47;2.00;;;0.83;;
5428;SDS011;2737;52.386;9.980;2023-04-24T13:08:14;1.10;;;0.90;;
5428;SDS011;2737;52.386;9.980;2023-04-24T13:10:41;1.80;;;0.80;;
5428;SDS011;2737;52.386;9.980;2023-04-24T13:13:10;2.20;;;0.80;;
5428;SDS011;2737;52.386;9.980;2023-04-24T13:15:37;1.30;;;1.00;;
5428;SDS011;2737;52.386;9.980;2023-04-24T13:18:04;1.10;;;1.00;;
5428;SDS011;2737;52.386;9.980;2023-04-24T13:20:31;3.90;;;1.20;;
5428;SDS011;2737;52.386;9.980;2023-04-24T13:23:00;3.40;;;1.10;;
5428;SDS011;2737;52.386;9.980;2023-04-24T13:25:27;1.43;;;1.00;;
5428;SDS011;2737;52.386;9.980;2023-04-24T13:27:54;1.37;;;1.20;;
5428;SDS011;2737;52.386;9.980;2023-04-24T13:30:23;3.73;;;1.20;;
5428;SDS011;2737;52.386;9.980;2023-04-24T13:32:50;1.03;;;0.90;;
5428;SDS011;2737;52.386;9.980;2023-04-24T13:35:17;2.07;;;0.90;;
5428;SDS011;2737;52.386;9.980;2023-04-24T13:37:44;5.10;;;1.10;;
5428;SDS011;2737;52.386;9.980;2023-04-24T13:40:11;1.30;;;1.00;;
5428;SDS011;2737;52.386;9.980;2023-04-24T13:42:38;1.10;;;0.87;;
5428;SDS011;2737;52.386;9.980;2023-04-24T13:45:05;0.80;;;0.80;;
5428;SDS011;2737;52.386;9.980;2023-04-24T13:47:34;1.53;;;1.00;;
5428;SDS011;2737;52.386;9.980;2023-04-24T13:50:01;1.87;;;1.03;;
5428;SDS011;2737;52.386;9.980;2023-04-24T13:52:28;2.20;;;1.00;;
5428;SDS011;2737;52.386;9.980;2023-04-24T13:54:55;2.57;;;0.90;;
5428;SDS011;2737;52.386;9.980;2023-04-24T13:57:22;0.87;;;0.87;;
5428;SDS011;2737;52.386;9.980;2023-04-24T13:59:49;1.53;;;0.80;;
5428;SDS011;2737;52.386;9.980;2023-04-24T14:02:16;0.70;;;0.70;;
5428;SDS011;2737;52.386;9.980;2023-04-24T14:04:45;1.10;;;0.80;;
5428;SDS011;2737;52.386;9.980;2023-04-24T14:07:13;1.53;;;0.87;;
5428;SDS011;2737;52.386;9.980;2023-04-24T14:09:40;0.80;;;0.80;;
5428;SDS011;2737;52.386;9.980;2023-04-24T14:12:07;0.90;;;0.90;;
5428;SDS011;2737;52.386;9.980;2023-04-24T14:14:34;1.27;;;0.70;;
5428;SDS011;2737;52.386;9.980;2023-04-24T14:17:01;0.63;;;0.53;;
5428;SDS011;2737;52.386;9.980;2023-04-24T14:19:28;1.73;;;0.70;;
5428;SDS011;2737;52.386;9.980;2023-04-24T14:21:57;0.60;;;0.60;;
5428;SDS011;2737;52.386;9.980;2023-04-24T14:24:24;1.27;;;0.60;;
5428;SDS011;2737;52.386;9.980;2023-04-24T14:26:51;1.90;;;0.73;;
5428;SDS011;2737;52.386;9.980;2023-04-24T14:29:18;1.00;;;0.80;;
5428;SDS011;2737;52.386;9.980;2023-04-24T14:31:45;0.70;;;0.70;;
5428;SDS011;2737;52.386;9.980;2023-04-24T14:34:13;0.97;;;0.80;;
5428;SDS011;2737;52.386;9.980;2023-04-24T14:36:40;1.13;;;0.80;;
5428;SDS011;2737;52.386;9.980;2023-04-24T14:39:09;2.10;;;0.80;;
5428;SDS011;2737;52.386;9.980;2023-04-24T14:41:36;1.33;;;1.00;;
5428;SDS011;2737;52.386;9.980;2023-04-24T14:44:04;0.90;;;0.80;;
5428;SDS011;2737;52.386;9.980;2023-04-24T14:46:31;1.40;;;1.30;;
5428;SDS011;2737;52.386;9.980;2023-04-24T14:48:58;1.60;;;1.50;;
5428;SDS011;2737;52.386;9.980;2023-04-24T14:51:25;4.80;;;1.30;;
5428;SDS011;2737;52.386;9.980;2023-04-24T14:53:52;2.77;;;1.50;;
5428;SDS011;2737;52.386;9.980;2023-04-24T14:56:20;1.47;;;1.37;;
5428;SDS011;2737;52.386;9.980;2023-04-24T14:58:47;2.43;;;1.80;;
5428;SDS011;2737;52.386;9.980;2023-04-24T15:01:15;3.10;;;1.70;;
5428;SDS011;2737;52.386;9.980;2023-04-24T15:03:42;6.60;;;1.70;;
5428;SDS011;2737;52.386;9.980;2023-04-24T15:06:10;2.40;;;1.80;;
5428;SDS011;2737;52.386;9.980;2023-04-24T15:08:37;4.80;;;2.93;;
5428;SDS011;2737;52.386;9.980;2023-04-24T15:11:04;4.20;;;2.33;;
5428;SDS011;2737;52.386;9.980;2023-04-24T15:13:33;3.43;;;2.27;;
5428;SDS011;2737;52.386;9.980;2023-04-24T15:16:00;10.43;;;2.20;;
5428;SDS011;2737;52.386;9.980;2023-04-24T15:18:27;4.57;;;2.10;;
5428;SDS011;2737;52.386;9.980;2023-04-24T15:20:54;8.57;;;2.63;;
5428;SDS011;2737;52.386;9.980;2023-04-24T15:23:21;3.87;;;2.20;;